sensor_id;sensor_type;location;lat;lon;timestamp;temperature;humidity
21518;DHT22;61765;45.794;24.150;2024-03-08T00:06:52;8.60;77.20
21518;DHT22;61765;45.794;24.150;2024-03-08T00:14:58;8.70;77.90
21518;DHT22;61765;45.794;24.150;2024-03-08T00:23:07;9.00;77.60
21518;DHT22;61765;45.794;24.150;2024-03-08T00:31:13;8.90;77.70
21518;DHT22;61765;45.794;24.150;2024-03-08T00:39:22;8.50;79.20
21518;DHT22;61765;45.794;24.150;2024-03-08T00:47:28;8.50;80.10
21518;DHT22;61765;45.794;24.150;2024-03-08T00:55:37;8.70;79.00
21518;DHT22;61765;45.794;24.150;2024-03-08T01:03:43;8.40;79.90
21518;DHT22;61765;45.794;24.150;2024-03-08T01:11:52;8.70;79.20
21518;DHT22;61765;45.794;24.150;2024-03-08T01:19:58;9.10;78.20
21518;DHT22;61765;45.794;24.150;2024-03-08T01:28:08;9.00;78.00
21518;DHT22;61765;45.794;24.150;2024-03-08T01:36:15;8.50;80.20
21518;DHT22;61765;45.794;24.150;2024-03-08T01:44:24;8.40;81.10
21518;DHT22;61765;45.794;24.150;2024-03-08T01:52:30;8.30;81.60
21518;DHT22;61765;45.794;24.150;2024-03-08T02:00:40;8.40;82.00
21518;DHT22;61765;45.794;24.150;2024-03-08T02:08:47;8.40;82.40
21518;DHT22;61765;45.794;24.150;2024-03-08T02:17:00;8.30;83.20
21518;DHT22;61765;45.794;24.150;2024-03-08T02:25:10;8.30;83.20
21518;DHT22;61765;45.794;24.150;2024-03-08T02:33:17;8.30;83.70
21518;DHT22;61765;45.794;24.150;2024-03-08T02:41:26;8.60;83.40
21518;DHT22;61765;45.794;24.150;2024-03-08T02:49:32;8.60;81.60
21518;DHT22;61765;45.794;24.150;2024-03-08T02:57:42;8.60;80.40
21518;DHT22;61765;45.794;24.150;2024-03-08T03:05:49;8.40;80.80
21518;DHT22;61765;45.794;24.150;2024-03-08T03:14:00;8.80;79.90
21518;DHT22;61765;45.794;24.150;2024-03-08T03:22:07;8.80;79.90
21518;DHT22;61765;45.794;24.150;2024-03-08T03:30:16;8.50;80.20
21518;DHT22;61765;45.794;24.150;2024-03-08T03:38:28;8.70;79.60
21518;DHT22;61765;45.794;24.150;2024-03-08T03:46:37;8.10;81.60
21518;DHT22;61765;45.794;24.150;2024-03-08T03:54:43;8.30;81.30
21518;DHT22;61765;45.794;24.150;2024-03-08T04:02:51;8.80;80.10
21518;DHT22;61765;45.794;24.150;2024-03-08T04:10:57;8.90;80.40
21518;DHT22;61765;45.794;24.150;2024-03-08T04:19:06;9.20;78.50
21518;DHT22;61765;45.794;24.150;2024-03-08T04:27:13;9.10;78.70
21518;DHT22;61765;45.794;24.150;2024-03-08T04:35:22;9.00;79.00
21518;DHT22;61765;45.794;24.150;2024-03-08T04:43:28;9.00;79.00
21518;DHT22;61765;45.794;24.150;2024-03-08T04:51:37;9.00;78.90
21518;DHT22;61765;45.794;24.150;2024-03-08T04:59:43;9.40;78.00
21518;DHT22;61765;45.794;24.150;2024-03-08T05:07:51;9.20;78.70
21518;DHT22;61765;45.794;24.150;2024-03-08T05:15:57;9.20;78.60
21518;DHT22;61765;45.794;24.150;2024-03-08T05:24:06;8.90;79.40
21518;DHT22;61765;45.794;24.150;2024-03-08T05:32:12;8.80;80.40
21518;DHT22;61765;45.794;24.150;2024-03-08T05:40:21;8.90;80.30
21518;DHT22;61765;45.794;24.150;2024-03-08T05:48:27;8.90;79.40
21518;DHT22;61765;45.794;24.150;2024-03-08T05:56:38;8.70;80.20
21518;DHT22;61765;45.794;24.150;2024-03-08T06:04:45;8.90;79.60
21518;DHT22;61765;45.794;24.150;2024-03-08T06:12:53;8.50;80.90
21518;DHT22;61765;45.794;24.150;2024-03-08T06:20:59;9.00;80.40
21518;DHT22;61765;45.794;24.150;2024-03-08T06:29:08;9.50;79.60
21518;DHT22;61765;45.794;24.150;2024-03-08T06:37:15;10.10;77.60
21518;DHT22;61765;45.794;24.150;2024-03-08T06:45:27;10.40;76.30
21518;DHT22;61765;45.794;24.150;2024-03-08T06:53:33;10.50;77.40
21518;DHT22;61765;45.794;24.150;2024-03-08T07:01:44;11.10;75.80
21518;DHT22;61765;45.794;24.150;2024-03-08T07:09:51;11.60;74.90
21518;DHT22;61765;45.794;24.150;2024-03-08T07:18:02;11.90;74.30
21518;DHT22;61765;45.794;24.150;2024-03-08T07:26:09;12.20;73.20
21518;DHT22;61765;45.794;24.150;2024-03-08T07:34:18;11.20;73.00
21518;DHT22;61765;45.794;24.150;2024-03-08T07:42:24;12.30;73.30
21518;DHT22;61765;45.794;24.150;2024-03-08T07:50:34;12.10;72.40
21518;DHT22;61765;45.794;24.150;2024-03-08T07:58:40;12.40;72.60
21518;DHT22;61765;45.794;24.150;2024-03-08T08:06:48;12.80;72.30
21518;DHT22;61765;45.794;24.150;2024-03-08T08:14:54;13.10;71.10
21518;DHT22;61765;45.794;24.150;2024-03-08T08:23:03;13.60;70.90
21518;DHT22;61765;45.794;24.150;2024-03-08T08:31:09;13.90;70.60
21518;DHT22;61765;45.794;24.150;2024-03-08T08:39:18;14.30;69.30
21518;DHT22;61765;45.794;24.150;2024-03-08T08:47:25;14.70;68.90
21518;DHT22;61765;45.794;24.150;2024-03-08T08:55:34;14.80;67.80
21518;DHT22;61765;45.794;24.150;2024-03-08T09:03:40;15.20;67.90
21518;DHT22;61765;45.794;24.150;2024-03-08T09:11:52;15.80;66.60
21518;DHT22;61765;45.794;24.150;2024-03-08T09:19:59;15.80;66.90
21518;DHT22;61765;45.794;24.150;2024-03-08T09:28:09;15.80;65.60
21518;DHT22;61765;45.794;24.150;2024-03-08T09:36:16;16.70;65.70
21518;DHT22;61765;45.794;24.150;2024-03-08T09:44:25;18.00;63.80
21518;DHT22;61765;45.794;24.150;2024-03-08T09:52:32;19.10;61.00
21518;DHT22;61765;45.794;24.150;2024-03-08T10:00:40;21.20;57.30
21518;DHT22;61765;45.794;24.150;2024-03-08T10:08:46;23.80;52.50
21518;DHT22;61765;45.794;24.150;2024-03-08T10:16:57;23.50;51.90
21518;DHT22;61765;45.794;24.150;2024-03-08T10:25:04;23.50;51.80
21518;DHT22;61765;45.794;24.150;2024-03-08T10:33:16;22.30;51.60
21518;DHT22;61765;45.794;24.150;2024-03-08T10:41:24;20.40;54.20
21518;DHT22;61765;45.794;24.150;2024-03-08T10:49:44;19.70;56.30
21518;DHT22;61765;45.794;24.150;2024-03-08T10:57:53;19.50;57.90
21518;DHT22;61765;45.794;24.150;2024-03-08T11:06:01;26.30;50.00
21518;DHT22;61765;45.794;24.150;2024-03-08T11:14:42;30.80;43.00
21518;DHT22;61765;45.794;24.150;2024-03-08T11:22:53;33.70;40.50
21518;DHT22;61765;45.794;24.150;2024-03-08T11:31:23;36.50;36.20
21518;DHT22;61765;45.794;24.150;2024-03-08T11:39:34;32.70;36.20
21518;DHT22;61765;45.794;24.150;2024-03-08T11:47:42;27.80;41.60
21518;DHT22;61765;45.794;24.150;2024-03-08T11:55:51;24.00;45.90
21518;DHT22;61765;45.794;24.150;2024-03-08T12:03:58;22.40;49.00
21518;DHT22;61765;45.794;24.150;2024-03-08T12:12:07;21.00;51.40
21518;DHT22;61765;45.794;24.150;2024-03-08T12:20:18;20.20;53.90
21518;DHT22;61765;45.794;24.150;2024-03-08T12:28:27;19.90;54.50
21518;DHT22;61765;45.794;24.150;2024-03-08T12:36:33;19.50;54.10
21518;DHT22;61765;45.794;24.150;2024-03-08T12:44:42;19.30;54.80
21518;DHT22;61765;45.794;24.150;2024-03-08T12:52:49;19.30;56.00
21518;DHT22;61765;45.794;24.150;2024-03-08T13:00:58;19.40;56.10
21518;DHT22;61765;45.794;24.150;2024-03-08T13:09:05;18.30;56.00
21518;DHT22;61765;45.794;24.150;2024-03-08T13:17:14;17.80;57.50
21518;DHT22;61765;45.794;24.150;2024-03-08T13:25:21;16.80;59.00
21518;DHT22;61765;45.794;24.150;2024-03-08T13:33:30;16.80;59.80
21518;DHT22;61765;45.794;24.150;2024-03-08T13:41:38;16.90;59.90
21518;DHT22;61765;45.794;24.150;2024-03-08T13:49:47;16.70;61.30
21518;DHT22;61765;45.794;24.150;2024-03-08T13:57:53;16.50;62.10
21518;DHT22;61765;45.794;24.150;2024-03-08T14:06:03;16.70;61.60
21518;DHT22;61765;45.794;24.150;2024-03-08T14:14:10;16.40;61.90
21518;DHT22;61765;45.794;24.150;2024-03-08T14:22:19;16.20;62.60
21518;DHT22;61765;45.794;24.150;2024-03-08T14:30:25;16.20;62.40
21518;DHT22;61765;45.794;24.150;2024-03-08T14:38:41;16.20;63.40
21518;DHT22;61765;45.794;24.150;2024-03-08T14:46:47;16.10;64.10
21518;DHT22;61765;45.794;24.150;2024-03-08T14:54:56;15.80;64.80
21518;DHT22;61765;45.794;24.150;2024-03-08T15:03:02;15.60;65.80
21518;DHT22;61765;45.794;24.150;2024-03-08T15:11:12;15.50;66.40
21518;DHT22;61765;45.794;24.150;2024-03-08T15:19:24;15.40;66.60
21518;DHT22;61765;45.794;24.150;2024-03-08T15:27:33;15.30;67.20
21518;DHT22;61765;45.794;24.150;2024-03-08T15:35:41;15.00;67.70
21518;DHT22;61765;45.794;24.150;2024-03-08T15:43:54;15.00;68.10
21518;DHT22;61765;45.794;24.150;2024-03-08T15:52:03;14.80;68.60
21518;DHT22;61765;45.794;24.150;2024-03-08T16:00:13;14.90;69.10
21518;DHT22;61765;45.794;24.150;2024-03-08T16:08:33;14.80;69.30
21518;DHT22;61765;45.794;24.150;2024-03-08T16:16:45;14.70;69.70
21518;DHT22;61765;45.794;24.150;2024-03-08T16:24:51;14.70;70.90
21518;DHT22;61765;45.794;24.150;2024-03-08T16:33:01;14.40;70.60
21518;DHT22;61765;45.794;24.150;2024-03-08T16:41:08;14.20;71.10
21518;DHT22;61765;45.794;24.150;2024-03-08T16:49:17;14.20;71.60
21518;DHT22;61765;45.794;24.150;2024-03-08T16:57:25;14.20;72.40
21518;DHT22;61765;45.794;24.150;2024-03-08T17:05:34;14.00;72.50
21518;DHT22;61765;45.794;24.150;2024-03-08T17:13:41;14.10;73.00
21518;DHT22;61765;45.794;24.150;2024-03-08T17:21:51;14.00;73.40
21518;DHT22;61765;45.794;24.150;2024-03-08T17:29:57;13.90;74.00
21518;DHT22;61765;45.794;24.150;2024-03-08T17:38:11;13.80;73.30
21518;DHT22;61765;45.794;24.150;2024-03-08T17:46:18;13.90;73.40
21518;DHT22;61765;45.794;24.150;2024-03-08T17:54:27;14.00;73.50
21518;DHT22;61765;45.794;24.150;2024-03-08T18:02:35;14.00;74.20
21518;DHT22;61765;45.794;24.150;2024-03-08T18:10:44;13.90;74.30
21518;DHT22;61765;45.794;24.150;2024-03-08T18:18:51;13.90;74.20
21518;DHT22;61765;45.794;24.150;2024-03-08T18:27:00;13.70;73.70
21518;DHT22;61765;45.794;24.150;2024-03-08T18:35:06;13.80;74.30
21518;DHT22;61765;45.794;24.150;2024-03-08T18:43:16;13.70;74.20
21518;DHT22;61765;45.794;24.150;2024-03-08T18:51:26;13.70;74.20
21518;DHT22;61765;45.794;24.150;2024-03-08T18:59:36;13.80;74.40
21518;DHT22;61765;45.794;24.150;2024-03-08T19:07:43;13.70;73.80
21518;DHT22;61765;45.794;24.150;2024-03-08T19:15:52;13.80;74.50
21518;DHT22;61765;45.794;24.150;2024-03-08T19:23:59;13.60;73.50
21518;DHT22;61765;45.794;24.150;2024-03-08T19:32:07;13.60;74.20
21518;DHT22;61765;45.794;24.150;2024-03-08T19:40:15;13.00;75.00
21518;DHT22;61765;45.794;24.150;2024-03-08T19:48:27;13.10;74.20
21518;DHT22;61765;45.794;24.150;2024-03-08T19:56:33;13.10;73.40
21518;DHT22;61765;45.794;24.150;2024-03-08T20:04:43;12.90;73.80
21518;DHT22;61765;45.794;24.150;2024-03-08T20:12:51;13.00;74.60
21518;DHT22;61765;45.794;24.150;2024-03-08T20:21:02;12.80;75.30
21518;DHT22;61765;45.794;24.150;2024-03-08T20:29:08;13.00;76.80
21518;DHT22;61765;45.794;24.150;2024-03-08T20:37:17;12.50;79.20
21518;DHT22;61765;45.794;24.150;2024-03-08T20:45:25;12.60;80.40
21518;DHT22;61765;45.794;24.150;2024-03-08T20:53:33;12.80;79.60
21518;DHT22;61765;45.794;24.150;2024-03-08T21:01:43;12.70;79.10
21518;DHT22;61765;45.794;24.150;2024-03-08T21:09:52;12.80;78.20
21518;DHT22;61765;45.794;24.150;2024-03-08T21:17:58;12.90;76.30
21518;DHT22;61765;45.794;24.150;2024-03-08T21:26:08;12.60;76.10
21518;DHT22;61765;45.794;24.150;2024-03-08T21:34:17;12.20;77.00
21518;DHT22;61765;45.794;24.150;2024-03-08T21:42:26;12.00;76.90
21518;DHT22;61765;45.794;24.150;2024-03-08T21:50:32;11.90;77.70
21518;DHT22;61765;45.794;24.150;2024-03-08T21:58:41;11.40;77.80
21518;DHT22;61765;45.794;24.150;2024-03-08T22:06:47;11.70;77.70
21518;DHT22;61765;45.794;24.150;2024-03-08T22:14:56;12.00;76.70
21518;DHT22;61765;45.794;24.150;2024-03-08T22:23:02;11.90;76.80
21518;DHT22;61765;45.794;24.150;2024-03-08T22:31:11;11.80;76.20
21518;DHT22;61765;45.794;24.150;2024-03-08T22:39:19;11.70;77.30
21518;DHT22;61765;45.794;24.150;2024-03-08T22:47:29;11.30;77.70
21518;DHT22;61765;45.794;24.150;2024-03-08T22:55:36;11.00;79.00
21518;DHT22;61765;45.794;24.150;2024-03-08T23:03:44;11.30;78.40
21518;DHT22;61765;45.794;24.150;2024-03-08T23:11:51;11.20;78.00
21518;DHT22;61765;45.794;24.150;2024-03-08T23:19:59;11.40;77.40
21518;DHT22;61765;45.794;24.150;2024-03-08T23:28:08;11.00;77.80
21518;DHT22;61765;45.794;24.150;2024-03-08T23:36:18;11.10;78.80
21518;DHT22;61765;45.794;24.150;2024-03-08T23:44:24;11.10;78.20
21518;DHT22;61765;45.794;24.150;2024-03-08T23:52:34;11.20;77.70
